Time;durP1;ratioP1;P1;durP2;ratioP2;P2;SDS_P1;SDS_P2;PMS_P1;PMS_P2;Temp;Humidity;BMP_temperature;BMP_pressure;BME280_temperature;BME280_humidity;BME280_pressure;Samples;Min_cycle;Max_cycle;Signal;HPM_P1;HPM_P2
2023/10/03 00:01:17;;;;;;;;;10.67;10.67;;;;;;;;5051812;28;45940;-76
2023/10/03 00:03:43;;;;;;;;;10.33;10.00;;;;;;;;5052122;28;45358;-77
2023/10/03 00:06:09;;;;;;;;;12.33;11.00;;;;;;;;5055765;28;45225;-76
2023/10/03 00:08:34;;;;;;;;;11.00;10.00;;;;;;;;5054856;28;45313;-76
2023/10/03 00:10:59;;;;;;;;;10.67;10.00;;;;;;;;5054297;28;46308;-76
2023/10/03 00:13:25;;;;;;;;;12.00;12.00;;;;;;;;5059376;28;45296;-77
2023/10/03 00:15:50;;;;;;;;;10.00;10.00;;;;;;;;5039892;28;44793;-76
2023/10/03 00:18:16;;;;;;;;;12.00;9.67;;;;;;;;5053946;28;45302;-76
2023/10/03 00:20:41;;;;;;;;;11.67;10.67;;;;;;;;5051614;28;45233;-76
2023/10/03 00:23:07;;;;;;;;;11.67;11.00;;;;;;;;5056010;28;44687;-76
2023/10/03 00:25:32;;;;;;;;;10.33;9.33;;;;;;;;5059694;28;44781;-76
2023/10/03 00:28:00;;;;;;;;;10.00;9.67;;;;;;;;5038513;28;45941;-76
2023/10/03 00:30:28;;;;;;;;;10.67;10.67;;;;;;;;5035680;28;48029;-76
2023/10/03 00:32:53;;;;;;;;;15.33;15.33;;;;;;;;5056757;28;45250;-76
2023/10/03 00:35:21;;;;;;;;;13.00;12.00;;;;;;;;5056705;28;45405;-76
2023/10/03 00:37:48;;;;;;;;;11.67;11.67;;;;;;;;5055298;28;45329;-76
2023/10/03 00:42:52;;;;;;;;;11.00;10.67;;;;;;;;5049537;28;45417;-76
2023/10/03 00:45:25;;;;;;;;;11.00;9.67;;;;;;;;5046836;28;45249;-77
2023/10/03 00:47:53;;;;;;;;;11.33;11.33;;;;;;;;5058569;28;45210;-75
2023/10/03 00:50:20;;;;;;;;;12.00;12.00;;;;;;;;5035241;28;47177;-76
2023/10/03 00:52:48;;;;;;;;;13.00;13.00;;;;;;;;5051251;28;45361;-77
2023/10/03 00:55:13;;;;;;;;;12.67;10.67;;;;;;;;5048810;28;45317;-76
2023/10/03 00:57:39;;;;;;;;;12.00;12.00;;;;;;;;5057949;28;44853;-75
2023/10/03 01:00:17;;;;;;;;;12.00;12.00;;;;;;;;5049201;28;46272;-75
2023/10/03 01:02:50;;;;;;;;;12.00;11.00;;;;;;;;5053094;28;45214;-76
2023/10/03 01:05:16;;;;;;;;;11.33;11.33;;;;;;;;5034399;28;45219;-75
2023/10/03 01:07:41;;;;;;;;;14.00;13.67;;;;;;;;5056602;28;45403;-76
2023/10/03 01:10:07;;;;;;;;;12.67;11.33;;;;;;;;5056908;28;45153;-77
2023/10/03 01:12:35;;;;;;;;;15.33;14.33;;;;;;;;5055850;28;45208;-76
2023/10/03 01:15:03;;;;;;;;;13.33;13.33;;;;;;;;5051235;28;45458;-76
2023/10/03 01:17:31;;;;;;;;;14.67;13.67;;;;;;;;5057123;28;45546;-77
2023/10/03 01:19:56;;;;;;;;;14.33;13.67;;;;;;;;5057244;28;47014;-76
2023/10/03 01:22:26;;;;;;;;;13.67;13.67;;;;;;;;5058903;28;44564;-77
2023/10/03 01:24:51;;;;;;;;;12.00;11.67;;;;;;;;5057798;28;45277;-76
2023/10/03 01:27:16;;;;;;;;;12.00;11.00;;;;;;;;5057836;28;45419;-76
2023/10/03 01:29:42;;;;;;;;;13.00;13.00;;;;;;;;5057652;28;47333;-76
2023/10/03 01:32:07;;;;;;;;;12.67;12.33;;;;;;;;5052027;28;46069;-77
2023/10/03 01:34:32;;;;;;;;;15.00;15.00;;;;;;;;5052013;28;45354;-77
2023/10/03 01:36:58;;;;;;;;;14.00;13.00;;;;;;;;5035536;28;46414;-76
2023/10/03 01:39:24;;;;;;;;;14.67;12.67;;;;;;;;5056203;28;46056;-76
2023/10/03 01:41:49;;;;;;;;;12.67;12.67;;;;;;;;5049902;28;45277;-76
2023/10/03 01:44:16;;;;;;;;;13.67;11.33;;;;;;;;5058086;28;45169;-76
2023/10/03 01:46:41;;;;;;;;;15.67;12.67;;;;;;;;5037296;28;46084;-76
2023/10/03 01:49:07;;;;;;;;;16.00;15.67;;;;;;;;5058139;28;45173;-77
2023/10/03 01:51:32;;;;;;;;;13.67;13.33;;;;;;;;5051658;28;45276;-77
2023/10/03 01:53:57;;;;;;;;;16.00;15.67;;;;;;;;5035506;28;45198;-77
2023/10/03 01:56:24;;;;;;;;;14.33;14.33;;;;;;;;5052760;28;45422;-76
2023/10/03 01:58:50;;;;;;;;;12.67;12.67;;;;;;;;5055484;28;46067;-77
2023/10/03 02:01:15;;;;;;;;;15.00;15.00;;;;;;;;5053902;28;45252;-77
2023/10/03 02:03:41;;;;;;;;;13.33;13.33;;;;;;;;5034702;28;44682;-77
2023/10/03 02:06:07;;;;;;;;;13.67;12.67;;;;;;;;5053401;28;45384;-76
2023/10/03 02:08:33;;;;;;;;;13.67;13.67;;;;;;;;5052536;28;46276;-77
2023/10/03 02:10:59;;;;;;;;;14.00;14.00;;;;;;;;5036189;28;45325;-76
2023/10/03 02:13:24;;;;;;;;;14.33;13.33;;;;;;;;5054394;28;44728;-78
2023/10/03 02:15:50;;;;;;;;;13.00;11.67;;;;;;;;5052074;28;46400;-77
2023/10/03 02:18:19;;;;;;;;;13.33;13.33;;;;;;;;5034728;28;48220;-77
2023/10/03 02:20:51;;;;;;;;;13.33;13.33;;;;;;;;5053674;28;44663;-77
2023/10/03 02:23:19;;;;;;;;;14.33;14.33;;;;;;;;5054749;28;45212;-76
2023/10/03 02:25:44;;;;;;;;;15.00;14.67;;;;;;;;5054341;28;44766;-76
2023/10/03 02:28:09;;;;;;;;;15.00;14.00;;;;;;;;5053958;28;46287;-76
2023/10/03 02:30:35;;;;;;;;;18.33;18.33;;;;;;;;5034467;28;45356;-76
2023/10/03 02:35:54;;;;;;;;;15.00;14.33;;;;;;;;5023541;28;45023;-76
2023/10/03 02:38:24;;;;;;;;;13.33;13.33;;;;;;;;5013820;28;46481;-77
2023/10/03 02:40:57;;;;;;;;;15.67;15.67;;;;;;;;5033610;28;45162;-76
2023/10/03 02:43:22;;;;;;;;;14.67;13.33;;;;;;;;5032223;28;45159;-76
2023/10/03 02:45:47;;;;;;;;;15.67;15.67;;;;;;;;5033252;28;45302;-77
2023/10/03 02:48:16;;;;;;;;;18.00;17.67;;;;;;;;5032186;28;45456;-76
2023/10/03 02:50:42;;;;;;;;;18.00;17.00;;;;;;;;5031872;28;45206;-76
2023/10/03 02:53:11;;;;;;;;;18.00;17.00;;;;;;;;5032641;28;45205;-76
2023/10/03 02:55:37;;;;;;;;;18.00;18.00;;;;;;;;5032111;28;45270;-77
2023/10/03 02:58:02;;;;;;;;;18.00;18.00;;;;;;;;5030334;28;45357;-76
2023/10/03 03:00:27;;;;;;;;;18.67;18.33;;;;;;;;5032368;28;45479;-76
2023/10/03 03:02:52;;;;;;;;;16.00;16.00;;;;;;;;5034196;28;45552;-77
2023/10/03 03:05:18;;;;;;;;;20.67;18.00;;;;;;;;5032671;28;46130;-77
2023/10/03 03:07:44;;;;;;;;;15.00;15.00;;;;;;;;5032645;28;45322;-77
2023/10/03 03:10:13;;;;;;;;;19.33;18.00;;;;;;;;5031961;28;45927;-77
2023/10/03 03:12:39;;;;;;;;;16.33;15.33;;;;;;;;5032972;28;45209;-76
2023/10/03 03:15:06;;;;;;;;;18.67;18.67;;;;;;;;5029438;28;46509;-76
2023/10/03 03:17:32;;;;;;;;;20.00;19.00;;;;;;;;5030170;28;47151;-77
2023/10/03 03:19:59;;;;;;;;;20.00;20.00;;;;;;;;5030066;28;45337;-77
2023/10/03 03:22:25;;;;;;;;;20.33;18.67;;;;;;;;5034188;28;44715;-78
2023/10/03 03:24:53;;;;;;;;;16.67;16.67;;;;;;;;5033136;28;44901;-78
2023/10/03 03:27:18;;;;;;;;;18.00;16.67;;;;;;;;5030380;28;47164;-77
2023/10/03 03:32:27;;;;;;;;;17.00;17.00;;;;;;;;5052314;28;45476;-76
2023/10/03 03:34:52;;;;;;;;;20.67;20.33;;;;;;;;5050622;28;45325;-76
2023/10/03 03:37:22;;;;;;;;;17.67;17.67;;;;;;;;5049771;28;45320;-76
2023/10/03 03:39:53;;;;;;;;;17.33;17.00;;;;;;;;5030717;28;45352;-77
2023/10/03 03:42:22;;;;;;;;;21.00;21.00;;;;;;;;5030490;28;45318;-78
2023/10/03 03:44:47;;;;;;;;;17.67;17.67;;;;;;;;5051265;28;45364;-77
2023/10/03 03:47:12;;;;;;;;;16.33;16.00;;;;;;;;5049666;28;45552;-77
2023/10/03 03:49:37;;;;;;;;;19.00;16.33;;;;;;;;5031264;28;45286;-76
2023/10/03 03:52:03;;;;;;;;;18.33;17.00;;;;;;;;5048806;28;45321;-78
2023/10/03 03:54:28;;;;;;;;;15.00;15.00;;;;;;;;5051885;28;45312;-78
2023/10/03 03:56:54;;;;;;;;;16.00;16.00;;;;;;;;5052227;28;45185;-77
2023/10/03 03:59:21;;;;;;;;;20.33;19.67;;;;;;;;5031710;28;46028;-77
2023/10/03 04:01:46;;;;;;;;;14.67;14.67;;;;;;;;5053397;28;45288;-76
2023/10/03 04:04:11;;;;;;;;;15.00;14.33;;;;;;;;5053138;28;45166;-77
2023/10/03 04:06:37;;;;;;;;;17.33;17.33;;;;;;;;5052110;28;45394;-77
2023/10/03 04:09:02;;;;;;;;;18.00;17.67;;;;;;;;5053802;28;44650;-76
2023/10/03 04:11:27;;;;;;;;;18.00;17.33;;;;;;;;5053294;28;45139;-77
2023/10/03 04:13:55;;;;;;;;;15.67;14.33;;;;;;;;5048622;28;45382;-77
2023/10/03 04:16:21;;;;;;;;;16.00;15.67;;;;;;;;5053421;28;45868;-77
2023/10/03 04:18:50;;;;;;;;;15.00;15.00;;;;;;;;5053805;28;45325;-77
2023/10/03 04:21:15;;;;;;;;;17.67;17.00;;;;;;;;5049356;28;45372;-76
2023/10/03 04:23:42;;;;;;;;;19.00;18.00;;;;;;;;5041997;28;45529;-77
2023/10/03 04:26:08;;;;;;;;;16.00;15.00;;;;;;;;5047344;28;46031;-76
2023/10/03 04:28:33;;;;;;;;;18.33;17.67;;;;;;;;5053680;28;45134;-77
2023/10/03 04:30:58;;;;;;;;;15.00;14.67;;;;;;;;5033081;28;45448;-77
2023/10/03 04:33:24;;;;;;;;;18.33;18.00;;;;;;;;5052563;28;46604;-77
2023/10/03 04:35:50;;;;;;;;;14.67;14.67;;;;;;;;5053847;28;45380;-77
2023/10/03 04:38:16;;;;;;;;;18.00;16.33;;;;;;;;5053363;28;45376;-77
2023/10/03 04:40:42;;;;;;;;;17.00;16.00;;;;;;;;5037130;28;45337;-76
2023/10/03 04:43:10;;;;;;;;;19.00;17.67;;;;;;;;5051998;28;45335;-77
2023/10/03 04:45:36;;;;;;;;;17.33;17.00;;;;;;;;5034285;28;47245;-78
2023/10/03 04:48:02;;;;;;;;;14.33;13.00;;;;;;;;5050084;28;45213;-82
2023/10/03 04:50:27;;;;;;;;;14.33;13.00;;;;;;;;5031249;28;45255;-79
2023/10/03 04:52:53;;;;;;;;;11.67;11.67;;;;;;;;5051362;28;45216;-79
2023/10/03 04:55:18;;;;;;;;;13.67;13.67;;;;;;;;5030252;28;45608;-79
2023/10/03 04:57:45;;;;;;;;;14.67;14.00;;;;;;;;5030377;28;45306;-79
2023/10/03 05:00:11;;;;;;;;;15.00;15.00;;;;;;;;5034386;28;45265;-79
2023/10/03 05:02:36;;;;;;;;;18.00;16.33;;;;;;;;5028246;28;45385;-80
2023/10/03 05:05:02;;;;;;;;;16.00;15.33;;;;;;;;5027771;28;47811;-78
2023/10/03 05:07:29;;;;;;;;;18.67;17.67;;;;;;;;5049222;28;45327;-79
2023/10/03 05:09:55;;;;;;;;;16.33;15.33;;;;;;;;5028348;28;45308;-78
2023/10/03 05:12:21;;;;;;;;;13.67;13.00;;;;;;;;5028956;28;46251;-78
2023/10/03 05:14:47;;;;;;;;;16.67;16.67;;;;;;;;5030971;28;45390;-77
2023/10/03 05:17:14;;;;;;;;;15.00;14.33;;;;;;;;5026899;28;45350;-77
2023/10/03 05:19:41;;;;;;;;;19.00;17.67;;;;;;;;5014423;28;45534;-79
2023/10/03 05:22:08;;;;;;;;;16.00;15.00;;;;;;;;5044604;28;45443;-77
2023/10/03 05:24:34;;;;;;;;;19.67;18.00;;;;;;;;5024151;28;48627;-79
2023/10/03 05:26:59;;;;;;;;;16.00;16.00;;;;;;;;5022953;28;45322;-78
2023/10/03 05:29:28;;;;;;;;;15.33;15.00;;;;;;;;5013725;28;45277;-78
2023/10/03 05:31:54;;;;;;;;;14.33;14.33;;;;;;;;5021891;28;45270;-79
2023/10/03 05:34:20;;;;;;;;;12.33;11.67;;;;;;;;5002904;28;47060;-80
2023/10/03 05:36:45;;;;;;;;;16.33;14.33;;;;;;;;5019801;28;45319;-79
2023/10/03 05:39:11;;;;;;;;;14.00;13.00;;;;;;;;5002336;28;45336;-78
2023/10/03 05:41:37;;;;;;;;;11.67;11.67;;;;;;;;5019614;28;46268;-78
2023/10/03 05:44:02;;;;;;;;;18.33;18.00;;;;;;;;5003305;28;46918;-78
2023/10/03 05:46:28;;;;;;;;;13.33;13.33;;;;;;;;5003381;28;45986;-78
2023/10/03 05:48:53;;;;;;;;;16.67;16.67;;;;;;;;5003278;28;45312;-78
2023/10/03 05:51:20;;;;;;;;;14.67;13.00;;;;;;;;5008878;28;45285;-77
2023/10/03 05:53:45;;;;;;;;;14.67;14.33;;;;;;;;5010933;28;45417;-76
2023/10/03 05:56:11;;;;;;;;;13.00;13.00;;;;;;;;5024272;28;45235;-76
2023/10/03 05:58:37;;;;;;;;;14.67;14.67;;;;;;;;5004296;28;45334;-79
2023/10/03 06:01:03;;;;;;;;;13.33;12.67;;;;;;;;5003944;28;45444;-78
2023/10/03 06:03:29;;;;;;;;;11.33;11.33;;;;;;;;5003058;28;47649;-78
2023/10/03 06:05:55;;;;;;;;;11.67;11.33;;;;;;;;5019926;28;45431;-76
2023/10/03 06:08:20;;;;;;;;;12.67;12.67;;;;;;;;5022579;28;45420;-77
2023/10/03 06:10:45;;;;;;;;;13.67;13.67;;;;;;;;5023522;28;45353;-76
2023/10/03 06:13:11;;;;;;;;;14.00;13.67;;;;;;;;5005534;28;45394;-77
2023/10/03 06:15:46;;;;;;;;;13.67;12.67;;;;;;;;5016559;28;45292;-78
2023/10/03 06:18:11;;;;;;;;;15.00;13.33;;;;;;;;5028169;28;45320;-79
2023/10/03 06:20:36;;;;;;;;;12.67;12.67;;;;;;;;5045143;28;45336;-80
2023/10/03 06:23:02;;;;;;;;;12.67;12.00;;;;;;;;5043174;28;46481;-80
2023/10/03 06:25:28;;;;;;;;;14.33;13.00;;;;;;;;5040001;28;45506;-80
2023/10/03 06:27:54;;;;;;;;;13.67;12.33;;;;;;;;5039301;28;45814;-83
2023/10/03 06:30:19;;;;;;;;;15.00;15.00;;;;;;;;5038505;28;47139;-80
2023/10/03 06:32:45;;;;;;;;;14.33;13.00;;;;;;;;5039643;28;46293;-80
2023/10/03 06:35:10;;;;;;;;;13.00;13.00;;;;;;;;5021914;28;45451;-78
2023/10/03 06:37:37;;;;;;;;;12.00;12.00;;;;;;;;5037838;28;45435;-78
2023/10/03 06:40:07;;;;;;;;;14.00;12.33;;;;;;;;5038308;28;46166;-78
2023/10/03 06:42:34;;;;;;;;;11.33;11.00;;;;;;;;5039250;28;46288;-77
2023/10/03 06:44:59;;;;;;;;;12.00;12.00;;;;;;;;5039374;28;45450;-78
2023/10/03 06:47:24;;;;;;;;;13.33;11.00;;;;;;;;5021874;28;45424;-79
2023/10/03 06:49:49;;;;;;;;;12.67;11.67;;;;;;;;5040571;28;45376;-78
2023/10/03 06:52:15;;;;;;;;;11.33;11.33;;;;;;;;5033559;28;45365;-79
2023/10/03 06:54:42;;;;;;;;;13.33;13.00;;;;;;;;5021165;28;45459;-78
2023/10/03 06:57:07;;;;;;;;;15.33;15.00;;;;;;;;5004771;28;45464;-78
2023/10/03 06:59:33;;;;;;;;;12.33;12.33;;;;;;;;5021612;28;45492;-79
2023/10/03 07:01:58;;;;;;;;;16.00;16.00;;;;;;;;5004085;28;45985;-79
2023/10/03 07:04:24;;;;;;;;;15.00;15.00;;;;;;;;5020193;28;45641;-79
2023/10/03 07:06:50;;;;;;;;;16.67;16.67;;;;;;;;5018553;28;45394;-78
2023/10/03 07:09:16;;;;;;;;;18.00;15.00;;;;;;;;5033275;28;45614;-78
2023/10/03 07:11:42;;;;;;;;;18.00;16.00;;;;;;;;5021456;28;46223;-78
2023/10/03 07:14:11;;;;;;;;;14.00;13.67;;;;;;;;5020634;28;45328;-77
2023/10/03 07:16:37;;;;;;;;;15.00;13.00;;;;;;;;5037404;28;45272;-77
2023/10/03 07:19:03;;;;;;;;;12.67;12.67;;;;;;;;5020410;28;46062;-77
2023/10/03 07:21:29;;;;;;;;;10.00;10.00;;;;;;;;5037222;28;45392;-76
2023/10/03 07:23:55;;;;;;;;;13.00;13.00;;;;;;;;5037714;28;45338;-76
2023/10/03 07:26:20;;;;;;;;;11.33;11.33;;;;;;;;5038874;28;45404;-76
2023/10/03 07:28:45;;;;;;;;;6.67;6.67;;;;;;;;5036014;28;45480;-76
2023/10/03 07:31:13;;;;;;;;;12.00;11.00;;;;;;;;5037345;28;45333;-77
2023/10/03 07:33:43;;;;;;;;;11.00;11.00;;;;;;;;5018586;28;45724;-78
2023/10/03 07:36:09;;;;;;;;;14.00;12.67;;;;;;;;5019677;28;45523;-78
2023/10/03 07:38:34;;;;;;;;;11.33;11.00;;;;;;;;5038614;28;45722;-78
2023/10/03 07:41:00;;;;;;;;;10.00;10.00;;;;;;;;5038287;28;46498;-76
2023/10/03 07:43:27;;;;;;;;;11.33;11.33;;;;;;;;5037848;28;45451;-76
2023/10/03 07:45:52;;;;;;;;;12.00;11.00;;;;;;;;5037860;28;45658;-76
2023/10/03 07:48:18;;;;;;;;;11.67;11.67;;;;;;;;5037440;28;45512;-76
2023/10/03 07:50:45;;;;;;;;;11.67;11.33;;;;;;;;5033980;28;45435;-77
2023/10/03 07:53:11;;;;;;;;;11.67;11.00;;;;;;;;5034941;28;45391;-76
2023/10/03 07:55:38;;;;;;;;;11.00;11.00;;;;;;;;5036201;28;45285;-76
2023/10/03 07:58:04;;;;;;;;;11.00;10.00;;;;;;;;5036220;28;45338;-76
2023/10/03 08:00:29;;;;;;;;;9.33;9.00;;;;;;;;5037397;28;46118;-76
2023/10/03 08:02:55;;;;;;;;;10.00;10.00;;;;;;;;5039193;28;45470;-76
2023/10/03 08:05:25;;;;;;;;;9.33;8.00;;;;;;;;5032665;28;45360;-77
2023/10/03 08:07:52;;;;;;;;;9.33;9.00;;;;;;;;5039098;28;45384;-77
2023/10/03 08:10:17;;;;;;;;;11.33;10.67;;;;;;;;5039644;28;45610;-77
2023/10/03 08:12:44;;;;;;;;;11.33;11.33;;;;;;;;5039669;28;45413;-76
2023/10/03 08:15:17;;;;;;;;;12.67;12.67;;;;;;;;5039785;28;45450;-76
2023/10/03 08:17:44;;;;;;;;;14.33;14.00;;;;;;;;5039012;28;45329;-76
2023/10/03 08:20:12;;;;;;;;;12.00;10.33;;;;;;;;5040814;28;45473;-76
2023/10/03 08:22:41;;;;;;;;;9.33;9.33;;;;;;;;5038675;28;45375;-77
2023/10/03 08:25:07;;;;;;;;;10.00;10.00;;;;;;;;5041265;28;45478;-76
2023/10/03 08:27:32;;;;;;;;;7.33;7.33;;;;;;;;5041068;28;45428;-76
2023/10/03 08:29:58;;;;;;;;;7.00;6.00;;;;;;;;5037562;28;46659;-76
2023/10/03 08:32:25;;;;;;;;;8.00;8.00;;;;;;;;5038551;28;45439;-76
2023/10/03 08:34:52;;;;;;;;;10.00;10.00;;;;;;;;5020582;28;45408;-76
2023/10/03 08:37:24;;;;;;;;;9.00;9.00;;;;;;;;5036034;28;45407;-76
2023/10/03 08:39:50;;;;;;;;;8.67;8.67;;;;;;;;5037734;28;45845;-75
2023/10/03 08:42:17;;;;;;;;;11.67;10.00;;;;;;;;5042274;28;45295;-76
2023/10/03 08:44:52;;;;;;;;;7.00;7.00;;;;;;;;5041995;28;45362;-79
2023/10/03 08:47:48;;;;;;;;;10.00;10.00;;;;;;;;5025231;28;47422;-79
2023/10/03 08:50:29;;;;;;;;;12.67;12.67;;;;;;;;5022026;28;48642;-78
2023/10/03 08:52:56;;;;;;;;;12.67;11.67;;;;;;;;5023043;28;45934;-75
2023/10/03 08:55:22;;;;;;;;;10.33;9.33;;;;;;;;5041091;28;45444;-76
2023/10/03 08:57:48;;;;;;;;;9.33;9.33;;;;;;;;5040729;28;45233;-77
2023/10/03 09:00:13;;;;;;;;;12.00;11.67;;;;;;;;5021655;28;47091;-75
2023/10/03 09:02:46;;;;;;;;;9.00;9.00;;;;;;;;5039928;28;45571;-77
2023/10/03 09:05:19;;;;;;;;;12.67;12.67;;;;;;;;5013414;28;45375;-76
2023/10/03 09:07:44;;;;;;;;;12.67;12.67;;;;;;;;5039979;28;45270;-77
2023/10/03 09:10:20;;;;;;;;;12.00;12.00;;;;;;;;5017876;28;47058;-79
2023/10/03 09:12:47;;;;;;;;;9.67;9.67;;;;;;;;5038191;28;45356;-78
2023/10/03 09:15:13;;;;;;;;;6.67;6.67;;;;;;;;5037702;28;45358;-77
2023/10/03 09:17:38;;;;;;;;;6.00;6.00;;;;;;;;5038996;28;45475;-76
2023/10/03 09:20:04;;;;;;;;;6.00;6.00;;;;;;;;5038226;28;45263;-76
2023/10/03 09:22:32;;;;;;;;;10.00;8.33;;;;;;;;5038414;28;45292;-76
2023/10/03 09:24:58;;;;;;;;;9.00;8.00;;;;;;;;5039428;28;45337;-76
2023/10/03 09:27:30;;;;;;;;;9.67;9.67;;;;;;;;5035745;28;45294;-76
2023/10/03 09:29:58;;;;;;;;;9.33;9.33;;;;;;;;5038522;28;46206;-76
2023/10/03 09:32:24;;;;;;;;;9.00;9.00;;;;;;;;5019970;28;46113;-77
2023/10/03 09:35:09;;;;;;;;;7.33;6.00;;;;;;;;5037715;28;45852;-77
2023/10/03 09:37:34;;;;;;;;;9.00;9.00;;;;;;;;5021242;28;46144;-76
2023/10/03 09:40:01;;;;;;;;;5.67;5.67;;;;;;;;5035357;28;45371;-76
2023/10/03 09:42:27;;;;;;;;;6.00;6.00;;;;;;;;5017536;28;45711;-76
2023/10/03 09:44:57;;;;;;;;;4.33;4.00;;;;;;;;5038396;28;45400;-77
2023/10/03 09:47:29;;;;;;;;;5.50;4.50;;;;;;;;5021486;28;47283;-77
2023/10/03 09:50:03;;;;;;;;;5.00;4.00;;;;;;;;5037263;28;46063;-78
2023/10/03 09:52:30;;;;;;;;;5.67;5.00;;;;;;;;5019235;28;46035;-78
2023/10/03 09:54:59;;;;;;;;;4.00;4.00;;;;;;;;5021972;28;45353;-76
2023/10/03 09:57:28;;;;;;;;;3.50;3.00;;;;;;;;5047640;28;46587;-80
2023/10/03 09:59:53;;;;;;;;;4.33;4.33;;;;;;;;5045625;28;45703;-79
2023/10/03 10:02:35;;;;;;;;;4.00;3.00;;;;;;;;5043055;28;45482;-80
2023/10/03 10:05:19;;;;;;;;;1.75;1.75;;;;;;;;5045355;28;45462;-81
2023/10/03 10:08:06;;;;;;;;;5.50;3.25;;;;;;;;5045926;28;45480;-84
2023/10/03 10:10:36;;;;;;;;;3.67;2.67;;;;;;;;5030977;28;47063;-84
2023/10/03 10:13:10;;;;;;;;;3.00;1.75;;;;;;;;5049147;28;45260;-81
2023/10/03 10:15:55;;;;;;;;;2.25;2.25;;;;;;;;5050418;28;45334;-86
2023/10/03 10:18:40;;;;;;;;;2.50;2.50;;;;;;;;5048311;28;45621;-85
2023/10/03 10:21:21;;;;;;;;;4.50;3.00;;;;;;;;5048643;28;46257;-81
2023/10/03 10:24:06;;;;;;;;;2.25;2.25;;;;;;;;5047888;28;45258;-84
2023/10/03 10:26:34;;;;;;;;;2.50;2.25;;;;;;;;5048347;28;45533;-84
2023/10/03 10:29:08;;;;;;;;;2.00;2.00;;;;;;;;5047484;28;45414;-87
2023/10/03 10:31:44;;;;;;;;;2.00;2.00;;;;;;;;5046525;28;47141;-88
2023/10/03 10:34:22;;;;;;;;;2.25;2.25;;;;;;;;5047708;28;45320;-79
2023/10/03 10:36:54;;;;;;;;;3.75;3.75;;;;;;;;5045718;28;45324;-86
2023/10/03 10:39:23;;;;;;;;;3.67;3.67;;;;;;;;5046793;28;45660;-84
2023/10/03 10:42:07;;;;;;;;;1.75;1.75;;;;;;;;5047115;28;45507;-87
2023/10/03 10:44:32;;;;;;;;;3.00;2.00;;;;;;;;5047763;28;45220;-89
2023/10/03 10:47:04;;;;;;;;;4.00;2.50;;;;;;;;5048267;28;45363;-84
2023/10/03 10:49:30;;;;;;;;;2.75;2.50;;;;;;;;5047883;28;45367;-83
2023/10/03 10:51:57;;;;;;;;;2.67;2.00;;;;;;;;5046745;28;46163;-79
2023/10/03 10:54:22;;;;;;;;;5.00;4.00;;;;;;;;5031170;28;46207;-79
2023/10/03 10:56:57;;;;;;;;;5.00;4.00;;;;;;;;5044659;28;45396;-83
2023/10/03 10:59:25;;;;;;;;;3.75;2.75;;;;;;;;5042296;28;45693;-81
2023/10/03 11:01:51;;;;;;;;;4.33;4.33;;;;;;;;5042301;28;45647;-81
2023/10/03 11:04:25;;;;;;;;;1.00;1.00;;;;;;;;5022808;28;46281;-79
2023/10/03 11:06:52;;;;;;;;;4.25;4.25;;;;;;;;5038070;28;45369;-80
2023/10/03 11:09:20;;;;;;;;;2.25;2.25;;;;;;;;5022508;28;46124;-81
2023/10/03 11:11:46;;;;;;;;;3.50;3.50;;;;;;;;5041248;28;45280;-78
2023/10/03 11:14:11;;;;;;;;;3.00;3.00;;;;;;;;5042916;28;45539;-78
2023/10/03 11:16:36;;;;;;;;;2.00;1.75;;;;;;;;5043429;28;45511;-77
2023/10/03 11:19:02;;;;;;;;;4.75;4.00;;;;;;;;5047734;28;45423;-78
2023/10/03 11:21:30;;;;;;;;;2.00;1.00;;;;;;;;5045765;28;46064;-79
2023/10/03 11:24:13;;;;;;;;;2.25;2.25;;;;;;;;5039643;28;45584;-78
2023/10/03 11:26:45;;;;;;;;;3.00;2.00;;;;;;;;5043630;28;45336;-79
2023/10/03 11:29:10;;;;;;;;;2.00;2.00;;;;;;;;5039261;28;45509;-77
2023/10/03 11:31:39;;;;;;;;;2.75;2.25;;;;;;;;5019775;28;47528;-76
2023/10/03 11:34:04;;;;;;;;;3.00;3.00;;;;;;;;5037819;28;45575;-78
2023/10/03 11:36:39;;;;;;;;;2.00;2.00;;;;;;;;5036681;28;45423;-81
2023/10/03 11:39:04;;;;;;;;;2.00;1.00;;;;;;;;5020194;28;47264;-80
2023/10/03 11:41:30;;;;;;;;;4.00;2.75;;;;;;;;5032575;28;45759;-79
2023/10/03 11:43:55;;;;;;;;;8.50;5.75;;;;;;;;5022693;28;45300;-78
2023/10/03 11:46:21;;;;;;;;;2.00;2.00;;;;;;;;5039962;28;45636;-78
2023/10/03 11:48:54;;;;;;;;;6.00;3.25;;;;;;;;5039455;28;45624;-77
2023/10/03 11:51:19;;;;;;;;;4.25;4.25;;;;;;;;5041435;28;45609;-76
2023/10/03 11:53:45;;;;;;;;;2.75;2.75;;;;;;;;5035266;28;45536;-76
2023/10/03 11:56:10;;;;;;;;;3.00;3.00;;;;;;;;5039370;28;45526;-79
2023/10/03 11:58:36;;;;;;;;;3.75;3.00;;;;;;;;5032407;28;45396;-81
2023/10/03 12:01:01;;;;;;;;;4.25;3.00;;;;;;;;5039423;28;45396;-78
2023/10/03 12:03:27;;;;;;;;;3.00;3.00;;;;;;;;5026728;28;45289;-78
2023/10/03 12:05:56;;;;;;;;;4.67;3.67;;;;;;;;5027177;28;45392;-77
2023/10/03 12:08:23;;;;;;;;;3.00;3.00;;;;;;;;5048364;28;46093;-76
2023/10/03 12:10:49;;;;;;;;;3.00;3.00;;;;;;;;5038895;28;46535;-80
2023/10/03 12:13:15;;;;;;;;;5.00;4.33;;;;;;;;5021591;28;46019;-82
2023/10/03 12:15:42;;;;;;;;;2.75;2.75;;;;;;;;5040746;28;45415;-79
2023/10/03 12:18:07;;;;;;;;;4.00;4.00;;;;;;;;5043546;28;46427;-81
2023/10/03 12:20:33;;;;;;;;;5.33;4.00;;;;;;;;5042316;28;45630;-81
2023/10/03 12:22:58;;;;;;;;;4.00;4.00;;;;;;;;5038501;28;45318;-79
2023/10/03 12:25:24;;;;;;;;;3.33;3.00;;;;;;;;5030426;28;45835;-81
2023/10/03 12:27:50;;;;;;;;;3.00;3.00;;;;;;;;5008864;28;45975;-82
2023/10/03 12:30:15;;;;;;;;;4.00;4.00;;;;;;;;5023723;28;47369;-85
2023/10/03 12:32:42;;;;;;;;;4.00;3.00;;;;;;;;5023735;28;45451;-85
2023/10/03 12:35:08;;;;;;;;;5.67;4.67;;;;;;;;5041489;28;45309;-82
2023/10/03 12:37:34;;;;;;;;;5.75;4.25;;;;;;;;5039420;28;45388;-76
2023/10/03 12:40:04;;;;;;;;;4.67;4.00;;;;;;;;5023037;28;47333;-77
2023/10/03 12:42:29;;;;;;;;;5.67;5.67;;;;;;;;5039834;28;45485;-77
2023/10/03 12:44:56;;;;;;;;;5.00;3.67;;;;;;;;5028133;28;45341;-79
2023/10/03 12:47:22;;;;;;;;;7.00;7.00;;;;;;;;5036425;28;45305;-78
2023/10/03 12:49:47;;;;;;;;;4.67;4.67;;;;;;;;5037031;28;46201;-79
2023/10/03 12:52:12;;;;;;;;;7.67;5.67;;;;;;;;5036767;28;45347;-79
2023/10/03 12:54:38;;;;;;;;;5.00;5.00;;;;;;;;5027430;28;45813;-78
2023/10/03 12:57:03;;;;;;;;;6.67;5.00;;;;;;;;5039765;28;45452;-78
2023/10/03 12:59:29;;;;;;;;;10.00;5.00;;;;;;;;5036303;28;46209;-79
2023/10/03 13:01:54;;;;;;;;;7.67;7.00;;;;;;;;5038644;28;45606;-79
2023/10/03 13:04:21;;;;;;;;;5.33;4.00;;;;;;;;5037239;28;45285;-80
2023/10/03 13:06:47;;;;;;;;;6.00;4.67;;;;;;;;5021599;28;46165;-79
2023/10/03 13:09:12;;;;;;;;;6.00;5.00;;;;;;;;5038805;28;46282;-77
2023/10/03 13:11:38;;;;;;;;;5.67;4.67;;;;;;;;5039599;28;46479;-76
2023/10/03 13:14:05;;;;;;;;;6.67;6.33;;;;;;;;5040533;28;45700;-77
2023/10/03 13:16:30;;;;;;;;;5.00;4.33;;;;;;;;5021800;28;47115;-75
2023/10/03 13:18:55;;;;;;;;;8.00;7.00;;;;;;;;5040337;28;45998;-78
2023/10/03 13:21:22;;;;;;;;;6.00;6.00;;;;;;;;5036262;28;45761;-76
2023/10/03 13:23:47;;;;;;;;;3.00;3.00;;;;;;;;5031068;28;45433;-76
2023/10/03 13:26:12;;;;;;;;;4.33;3.67;;;;;;;;5038417;28;45472;-75
2023/10/03 13:28:38;;;;;;;;;3.33;3.33;;;;;;;;5037978;28;46527;-75
2023/10/03 13:31:03;;;;;;;;;20.00;19.00;;;;;;;;5039800;28;45445;-80
2023/10/03 13:33:28;;;;;;;;;7.00;7.00;;;;;;;;5038310;28;45609;-76
2023/10/03 13:35:54;;;;;;;;;5.00;5.00;;;;;;;;5039779;28;45662;-77
2023/10/03 13:38:19;;;;;;;;;4.25;4.25;;;;;;;;5034974;28;45624;-82
2023/10/03 13:40:45;;;;;;;;;4.00;4.00;;;;;;;;5036017;28;45466;-75
2023/10/03 13:43:17;;;;;;;;;2.25;2.25;;;;;;;;5026187;28;45387;-74
2023/10/03 13:45:42;;;;;;;;;2.25;2.25;;;;;;;;5021288;28;46610;-75
2023/10/03 13:48:07;;;;;;;;;2.25;1.25;;;;;;;;5022875;28;47217;-79
2023/10/03 13:50:35;;;;;;;;;3.75;3.00;;;;;;;;5023693;28;45877;-79
2023/10/03 13:53:03;;;;;;;;;5.50;3.75;;;;;;;;5024011;28;45463;-78
2023/10/03 13:55:29;;;;;;;;;3.00;3.00;;;;;;;;5041847;28;45524;-79
2023/10/03 13:57:55;;;;;;;;;3.00;3.00;;;;;;;;5041394;28;45416;-77
2023/10/03 14:00:21;;;;;;;;;3.00;3.00;;;;;;;;5040732;28;45503;-73
2023/10/03 14:02:48;;;;;;;;;2.00;2.00;;;;;;;;5043076;28;45325;-75
2023/10/03 14:05:13;;;;;;;;;2.50;2.50;;;;;;;;5042623;28;45505;-76
2023/10/03 14:07:39;;;;;;;;;2.75;2.25;;;;;;;;5043759;28;47464;-75
2023/10/03 14:10:07;;;;;;;;;3.00;3.00;;;;;;;;5045071;28;45300;-75
2023/10/03 14:12:33;;;;;;;;;2.00;1.00;;;;;;;;5032773;28;45332;-74
2023/10/03 14:14:58;;;;;;;;;3.00;2.25;;;;;;;;5048586;28;45362;-76
2023/10/03 14:17:24;;;;;;;;;3.00;3.00;;;;;;;;5048147;28;47332;-78
2023/10/03 14:19:50;;;;;;;;;1.00;1.00;;;;;;;;5047774;28;45393;-76
2023/10/03 14:22:18;;;;;;;;;2.50;2.50;;;;;;;;5026790;28;45181;-75
2023/10/03 14:24:43;;;;;;;;;2.50;2.50;;;;;;;;5024739;28;46169;-75
2023/10/03 14:27:08;;;;;;;;;2.50;2.50;;;;;;;;5043547;28;46213;-76
2023/10/03 14:29:33;;;;;;;;;2.25;2.25;;;;;;;;5050268;28;45390;-77
2023/10/03 14:31:58;;;;;;;;;2.75;2.75;;;;;;;;5045618;28;45303;-77
2023/10/03 14:34:26;;;;;;;;;2.50;2.50;;;;;;;;5025091;28;45774;-78
2023/10/03 14:36:52;;;;;;;;;2.50;1.00;;;;;;;;5023689;28;47158;-77